sensor_id;sensor_type;location;lat;lon;timestamp;P1;durP1;ratioP1;P2;durP2;ratioP2
44774;SDS011;31340;51.402;0.016;2023-08-06T00:00:42;5.40;;;3.15;;
44774;SDS011;31340;51.402;0.016;2023-08-06T00:03:10;5.60;;;3.28;;
44774;SDS011;31340;51.402;0.016;2023-08-06T00:05:40;5.68;;;2.85;;
44774;SDS011;31340;51.402;0.016;2023-08-06T00:08:09;4.55;;;2.90;;
44774;SDS011;31340;51.402;0.016;2023-08-06T00:10:37;6.35;;;2.80;;
44774;SDS011;31340;51.402;0.016;2023-08-06T00:13:07;10.25;;;2.83;;
44774;SDS011;31340;51.402;0.016;2023-08-06T00:15:35;6.85;;;3.00;;
44774;SDS011;31340;51.402;0.016;2023-08-06T00:18:03;4.63;;;2.17;;
44774;SDS011;31340;51.402;0.016;2023-08-06T00:20:31;5.22;;;2.53;;
44774;SDS011;31340;51.402;0.016;2023-08-06T00:22:59;6.82;;;2.75;;
44774;SDS011;31340;51.402;0.016;2023-08-06T00:25:27;5.82;;;2.67;;
44774;SDS011;31340;51.402;0.016;2023-08-06T00:27:54;6.93;;;3.15;;
44774;SDS011;31340;51.402;0.016;2023-08-06T00:30:23;5.95;;;2.45;;
44774;SDS011;31340;51.402;0.016;2023-08-06T00:32:51;6.95;;;2.88;;
44774;SDS011;31340;51.402;0.016;2023-08-06T00:35:19;8.00;;;3.10;;
44774;SDS011;31340;51.402;0.016;2023-08-06T00:37:46;7.28;;;2.65;;
44774;SDS011;31340;51.402;0.016;2023-08-06T00:40:14;5.10;;;2.95;;
44774;SDS011;31340;51.402;0.016;2023-08-06T00:42:42;6.85;;;3.00;;
44774;SDS011;31340;51.402;0.016;2023-08-06T00:45:12;12.63;;;2.90;;
44774;SDS011;31340;51.402;0.016;2023-08-06T00:47:39;4.43;;;2.25;;
44774;SDS011;31340;51.402;0.016;2023-08-06T00:50:08;10.77;;;2.50;;
44774;SDS011;31340;51.402;0.016;2023-08-06T00:52:36;7.03;;;2.20;;
44774;SDS011;31340;51.402;0.016;2023-08-06T00:55:05;6.05;;;2.65;;
44774;SDS011;31340;51.402;0.016;2023-08-06T00:57:33;10.68;;;2.85;;
44774;SDS011;31340;51.402;0.016;2023-08-06T01:00:01;7.03;;;2.45;;
44774;SDS011;31340;51.402;0.016;2023-08-06T01:02:31;7.35;;;2.70;;
44774;SDS011;31340;51.402;0.016;2023-08-06T01:04:59;5.28;;;2.50;;
44774;SDS011;31340;51.402;0.016;2023-08-06T01:13:17;5.10;;;2.70;;
44774;SDS011;31340;51.402;0.016;2023-08-06T01:15:58;7.70;;;2.53;;
44774;SDS011;31340;51.402;0.016;2023-08-06T01:18:27;8.20;;;2.88;;
44774;SDS011;31340;51.402;0.016;2023-08-06T01:20:54;11.63;;;2.80;;
44774;SDS011;31340;51.402;0.016;2023-08-06T01:23:22;6.72;;;2.40;;
44774;SDS011;31340;51.402;0.016;2023-08-06T01:28:59;4.82;;;2.50;;
44774;SDS011;31340;51.402;0.016;2023-08-06T01:31:43;6.82;;;2.83;;
44774;SDS011;31340;51.402;0.016;2023-08-06T01:34:20;11.80;;;3.17;;
44774;SDS011;31340;51.402;0.016;2023-08-06T01:36:52;6.50;;;3.00;;
44774;SDS011;31340;51.402;0.016;2023-08-06T01:39:20;7.22;;;3.17;;
44774;SDS011;31340;51.402;0.016;2023-08-06T01:41:48;11.55;;;3.53;;
44774;SDS011;31340;51.402;0.016;2023-08-06T01:44:17;8.35;;;3.67;;
44774;SDS011;31340;51.402;0.016;2023-08-06T01:46:45;10.90;;;3.63;;
44774;SDS011;31340;51.402;0.016;2023-08-06T01:49:13;9.55;;;3.65;;
44774;SDS011;31340;51.402;0.016;2023-08-06T01:51:41;11.68;;;3.97;;
44774;SDS011;31340;51.402;0.016;2023-08-06T01:54:08;9.45;;;3.30;;
44774;SDS011;31340;51.402;0.016;2023-08-06T01:56:38;6.25;;;3.10;;
44774;SDS011;31340;51.402;0.016;2023-08-06T01:59:05;9.02;;;3.75;;
44774;SDS011;31340;51.402;0.016;2023-08-06T02:01:33;7.72;;;3.80;;
44774;SDS011;31340;51.402;0.016;2023-08-06T02:04:01;9.23;;;3.30;;
44774;SDS011;31340;51.402;0.016;2023-08-06T02:06:29;13.85;;;3.78;;
44774;SDS011;31340;51.402;0.016;2023-08-06T02:08:57;9.90;;;3.95;;
44774;SDS011;31340;51.402;0.016;2023-08-06T02:11:24;10.65;;;4.10;;
44774;SDS011;31340;51.402;0.016;2023-08-06T02:13:53;10.45;;;4.20;;
44774;SDS011;31340;51.402;0.016;2023-08-06T02:16:21;7.82;;;4.15;;
44774;SDS011;31340;51.402;0.016;2023-08-06T02:18:49;9.98;;;3.72;;
44774;SDS011;31340;51.402;0.016;2023-08-06T02:21:24;11.25;;;3.85;;
44774;SDS011;31340;51.402;0.016;2023-08-06T02:23:53;8.45;;;3.55;;
44774;SDS011;31340;51.402;0.016;2023-08-06T02:26:22;11.10;;;4.25;;
44774;SDS011;31340;51.402;0.016;2023-08-06T02:28:49;10.32;;;4.68;;
44774;SDS011;31340;51.402;0.016;2023-08-06T02:31:18;9.30;;;3.60;;
44774;SDS011;31340;51.402;0.016;2023-08-06T02:33:46;9.38;;;4.05;;
44774;SDS011;31340;51.402;0.016;2023-08-06T02:36:14;10.48;;;4.28;;
44774;SDS011;31340;51.402;0.016;2023-08-06T02:38:41;8.05;;;3.95;;
44774;SDS011;31340;51.402;0.016;2023-08-06T02:41:09;8.85;;;3.97;;
44774;SDS011;31340;51.402;0.016;2023-08-06T02:43:36;7.40;;;3.58;;
44774;SDS011;31340;51.402;0.016;2023-08-06T02:46:04;9.68;;;4.07;;
44774;SDS011;31340;51.402;0.016;2023-08-06T02:48:33;8.18;;;3.58;;
44774;SDS011;31340;51.402;0.016;2023-08-06T02:51:01;11.00;;;3.97;;
44774;SDS011;31340;51.402;0.016;2023-08-06T02:53:32;6.88;;;3.70;;
44774;SDS011;31340;51.402;0.016;2023-08-06T02:56:04;6.55;;;3.53;;
44774;SDS011;31340;51.402;0.016;2023-08-06T02:58:43;8.07;;;3.85;;
44774;SDS011;31340;51.402;0.016;2023-08-06T03:01:21;12.48;;;4.10;;
44774;SDS011;31340;51.402;0.016;2023-08-06T03:03:56;6.32;;;3.95;;
44774;SDS011;31340;51.402;0.016;2023-08-06T03:06:30;7.72;;;3.33;;
44774;SDS011;31340;51.402;0.016;2023-08-06T03:09:00;8.07;;;3.95;;
44774;SDS011;31340;51.402;0.016;2023-08-06T03:11:27;9.60;;;3.33;;
44774;SDS011;31340;51.402;0.016;2023-08-06T03:14:01;7.35;;;3.40;;
44774;SDS011;31340;51.402;0.016;2023-08-06T03:16:30;6.85;;;3.00;;
44774;SDS011;31340;51.402;0.016;2023-08-06T03:18:59;8.63;;;3.50;;
44774;SDS011;31340;51.402;0.016;2023-08-06T03:21:28;7.30;;;3.15;;
44774;SDS011;31340;51.402;0.016;2023-08-06T03:23:56;9.00;;;3.83;;
44774;SDS011;31340;51.402;0.016;2023-08-06T03:26:27;10.07;;;3.55;;
44774;SDS011;31340;51.402;0.016;2023-08-06T03:28:55;7.75;;;3.47;;
44774;SDS011;31340;51.402;0.016;2023-08-06T03:31:22;10.75;;;4.13;;
44774;SDS011;31340;51.402;0.016;2023-08-06T03:33:50;7.03;;;3.47;;
44774;SDS011;31340;51.402;0.016;2023-08-06T03:36:23;10.70;;;3.05;;
44774;SDS011;31340;51.402;0.016;2023-08-06T03:38:52;7.85;;;3.85;;
44774;SDS011;31340;51.402;0.016;2023-08-06T03:41:20;6.20;;;3.30;;
44774;SDS011;31340;51.402;0.016;2023-08-06T03:43:49;8.95;;;3.95;;
44774;SDS011;31340;51.402;0.016;2023-08-06T03:46:22;10.07;;;4.65;;
44774;SDS011;31340;51.402;0.016;2023-08-06T03:48:50;10.15;;;3.30;;
44774;SDS011;31340;51.402;0.016;2023-08-06T03:51:18;7.18;;;3.63;;
44774;SDS011;31340;51.402;0.016;2023-08-06T03:53:47;9.85;;;3.92;;
44774;SDS011;31340;51.402;0.016;2023-08-06T03:56:15;7.88;;;3.60;;
44774;SDS011;31340;51.402;0.016;2023-08-06T03:58:43;7.60;;;2.90;;
44774;SDS011;31340;51.402;0.016;2023-08-06T04:01:10;9.35;;;3.72;;
44774;SDS011;31340;51.402;0.016;2023-08-06T04:03:43;9.25;;;3.80;;
44774;SDS011;31340;51.402;0.016;2023-08-06T04:06:12;8.48;;;3.45;;
44774;SDS011;31340;51.402;0.016;2023-08-06T04:08:39;9.48;;;3.38;;
44774;SDS011;31340;51.402;0.016;2023-08-06T04:11:07;6.43;;;3.20;;
44774;SDS011;31340;51.402;0.016;2023-08-06T04:13:35;5.90;;;3.22;;
44774;SDS011;31340;51.402;0.016;2023-08-06T04:16:03;8.32;;;3.58;;
44774;SDS011;31340;51.402;0.016;2023-08-06T04:18:32;7.43;;;3.38;;
44774;SDS011;31340;51.402;0.016;2023-08-06T04:21:01;8.45;;;4.43;;
44774;SDS011;31340;51.402;0.016;2023-08-06T04:23:29;8.35;;;3.65;;
44774;SDS011;31340;51.402;0.016;2023-08-06T04:26:01;11.73;;;3.92;;
44774;SDS011;31340;51.402;0.016;2023-08-06T04:28:32;9.30;;;3.42;;
44774;SDS011;31340;51.402;0.016;2023-08-06T04:31:00;7.50;;;3.25;;
44774;SDS011;31340;51.402;0.016;2023-08-06T04:33:30;8.80;;;3.47;;
44774;SDS011;31340;51.402;0.016;2023-08-06T04:38:30;8.10;;;3.38;;
44774;SDS011;31340;51.402;0.016;2023-08-06T04:40:57;8.73;;;3.00;;
44774;SDS011;31340;51.402;0.016;2023-08-06T04:43:25;9.30;;;3.63;;
44774;SDS011;31340;51.402;0.016;2023-08-06T04:45:53;7.40;;;3.47;;
44774;SDS011;31340;51.402;0.016;2023-08-06T04:48:22;8.75;;;3.65;;
44774;SDS011;31340;51.402;0.016;2023-08-06T04:50:50;10.90;;;3.80;;
44774;SDS011;31340;51.402;0.016;2023-08-06T04:53:18;8.30;;;3.30;;
44774;SDS011;31340;51.402;0.016;2023-08-06T04:55:45;11.15;;;3.70;;
44774;SDS011;31340;51.402;0.016;2023-08-06T04:58:13;9.68;;;3.85;;
44774;SDS011;31340;51.402;0.016;2023-08-06T05:00:41;13.38;;;3.60;;
44774;SDS011;31340;51.402;0.016;2023-08-06T05:03:09;7.55;;;3.63;;
44774;SDS011;31340;51.402;0.016;2023-08-06T05:05:39;10.15;;;3.80;;
44774;SDS011;31340;51.402;0.016;2023-08-06T05:08:13;7.68;;;3.20;;
44774;SDS011;31340;51.402;0.016;2023-08-06T05:10:43;10.13;;;4.43;;
44774;SDS011;31340;51.402;0.016;2023-08-06T05:13:12;9.27;;;3.50;;
44774;SDS011;31340;51.402;0.016;2023-08-06T05:15:41;8.05;;;3.75;;
44774;SDS011;31340;51.402;0.016;2023-08-06T05:18:09;10.70;;;4.22;;
44774;SDS011;31340;51.402;0.016;2023-08-06T05:20:39;9.65;;;3.50;;
44774;SDS011;31340;51.402;0.016;2023-08-06T05:23:07;6.78;;;3.25;;
44774;SDS011;31340;51.402;0.016;2023-08-06T05:25:35;7.88;;;3.88;;
44774;SDS011;31340;51.402;0.016;2023-08-06T05:28:03;6.55;;;3.35;;
44774;SDS011;31340;51.402;0.016;2023-08-06T05:30:31;9.02;;;3.67;;
44774;SDS011;31340;51.402;0.016;2023-08-06T05:33:00;7.18;;;3.20;;
44774;SDS011;31340;51.402;0.016;2023-08-06T05:35:27;8.88;;;3.83;;
44774;SDS011;31340;51.402;0.016;2023-08-06T05:37:55;11.60;;;4.25;;
44774;SDS011;31340;51.402;0.016;2023-08-06T05:40:23;8.20;;;3.75;;
44774;SDS011;31340;51.402;0.016;2023-08-06T05:42:54;7.07;;;3.88;;
44774;SDS011;31340;51.402;0.016;2023-08-06T05:45:22;10.77;;;3.97;;
44774;SDS011;31340;51.402;0.016;2023-08-06T05:47:50;7.70;;;3.35;;
44774;SDS011;31340;51.402;0.016;2023-08-06T05:50:17;11.02;;;4.35;;
44774;SDS011;31340;51.402;0.016;2023-08-06T05:52:45;12.25;;;3.83;;
44774;SDS011;31340;51.402;0.016;2023-08-06T05:55:13;8.60;;;3.63;;
44774;SDS011;31340;51.402;0.016;2023-08-06T05:57:41;7.13;;;3.95;;
44774;SDS011;31340;51.402;0.016;2023-08-06T06:00:08;10.55;;;4.13;;
44774;SDS011;31340;51.402;0.016;2023-08-06T06:02:39;8.18;;;3.47;;
44774;SDS011;31340;51.402;0.016;2023-08-06T06:05:07;8.75;;;4.18;;
44774;SDS011;31340;51.402;0.016;2023-08-06T06:07:35;7.63;;;3.40;;
44774;SDS011;31340;51.402;0.016;2023-08-06T06:10:02;9.73;;;4.25;;
44774;SDS011;31340;51.402;0.016;2023-08-06T06:12:30;9.13;;;4.10;;
44774;SDS011;31340;51.402;0.016;2023-08-06T06:14:58;6.15;;;3.47;;
44774;SDS011;31340;51.402;0.016;2023-08-06T06:17:28;8.25;;;3.88;;
44774;SDS011;31340;51.402;0.016;2023-08-06T06:19:57;7.47;;;4.07;;
44774;SDS011;31340;51.402;0.016;2023-08-06T06:22:24;9.00;;;3.40;;
44774;SDS011;31340;51.402;0.016;2023-08-06T06:24:52;7.80;;;3.55;;
44774;SDS011;31340;51.402;0.016;2023-08-06T06:27:19;8.45;;;3.40;;
44774;SDS011;31340;51.402;0.016;2023-08-06T06:29:47;6.78;;;3.53;;
44774;SDS011;31340;51.402;0.016;2023-08-06T06:32:14;6.65;;;3.40;;
44774;SDS011;31340;51.402;0.016;2023-08-06T06:34:42;6.20;;;3.30;;
44774;SDS011;31340;51.402;0.016;2023-08-06T06:37:10;5.65;;;3.05;;
44774;SDS011;31340;51.402;0.016;2023-08-06T06:39:37;6.20;;;3.35;;
44774;SDS011;31340;51.402;0.016;2023-08-06T06:42:05;8.02;;;3.00;;
44774;SDS011;31340;51.402;0.016;2023-08-06T06:44:37;7.15;;;3.03;;
44774;SDS011;31340;51.402;0.016;2023-08-06T06:47:05;10.27;;;3.28;;
44774;SDS011;31340;51.402;0.016;2023-08-06T06:49:33;6.35;;;3.60;;
44774;SDS011;31340;51.402;0.016;2023-08-06T06:52:00;9.80;;;3.50;;
44774;SDS011;31340;51.402;0.016;2023-08-06T06:54:28;8.05;;;3.65;;
44774;SDS011;31340;51.402;0.016;2023-08-06T06:56:55;5.72;;;3.05;;
44774;SDS011;31340;51.402;0.016;2023-08-06T06:59:24;7.00;;;3.30;;
44774;SDS011;31340;51.402;0.016;2023-08-06T07:01:51;6.53;;;3.05;;
44774;SDS011;31340;51.402;0.016;2023-08-06T07:04:20;8.23;;;3.20;;
44774;SDS011;31340;51.402;0.016;2023-08-06T07:06:48;8.00;;;3.13;;
44774;SDS011;31340;51.402;0.016;2023-08-06T07:09:15;8.98;;;3.33;;
44774;SDS011;31340;51.402;0.016;2023-08-06T07:11:43;4.85;;;2.85;;
44774;SDS011;31340;51.402;0.016;2023-08-06T07:14:11;6.38;;;3.40;;
44774;SDS011;31340;51.402;0.016;2023-08-06T07:16:38;6.10;;;3.42;;
44774;SDS011;31340;51.402;0.016;2023-08-06T07:19:06;6.30;;;2.75;;
44774;SDS011;31340;51.402;0.016;2023-08-06T07:21:33;4.50;;;2.95;;
44774;SDS011;31340;51.402;0.016;2023-08-06T07:24:01;6.65;;;3.22;;
44774;SDS011;31340;51.402;0.016;2023-08-06T07:26:29;8.10;;;3.30;;
44774;SDS011;31340;51.402;0.016;2023-08-06T07:28:57;7.28;;;3.22;;
44774;SDS011;31340;51.402;0.016;2023-08-06T07:31:24;5.80;;;3.25;;
44774;SDS011;31340;51.402;0.016;2023-08-06T07:33:52;7.97;;;3.05;;
44774;SDS011;31340;51.402;0.016;2023-08-06T07:36:20;7.15;;;2.55;;
44774;SDS011;31340;51.402;0.016;2023-08-06T07:38:48;5.05;;;2.70;;
44774;SDS011;31340;51.402;0.016;2023-08-06T07:41:18;5.82;;;3.28;;
44774;SDS011;31340;51.402;0.016;2023-08-06T07:43:46;6.80;;;3.03;;
44774;SDS011;31340;51.402;0.016;2023-08-06T07:46:13;8.27;;;3.25;;
44774;SDS011;31340;51.402;0.016;2023-08-06T07:48:41;4.65;;;2.80;;
44774;SDS011;31340;51.402;0.016;2023-08-06T07:51:08;6.05;;;2.60;;
44774;SDS011;31340;51.402;0.016;2023-08-06T07:53:36;6.30;;;2.53;;
44774;SDS011;31340;51.402;0.016;2023-08-06T07:56:04;9.65;;;2.90;;
44774;SDS011;31340;51.402;0.016;2023-08-06T07:58:32;6.50;;;2.78;;
44774;SDS011;31340;51.402;0.016;2023-08-06T08:00:59;4.53;;;2.45;;
44774;SDS011;31340;51.402;0.016;2023-08-06T08:03:30;4.82;;;2.53;;
44774;SDS011;31340;51.402;0.016;2023-08-06T08:05:58;5.55;;;2.30;;
44774;SDS011;31340;51.402;0.016;2023-08-06T08:08:25;3.97;;;2.30;;
44774;SDS011;31340;51.402;0.016;2023-08-06T08:10:53;3.90;;;2.28;;
44774;SDS011;31340;51.402;0.016;2023-08-06T08:13:22;7.15;;;2.22;;
44774;SDS011;31340;51.402;0.016;2023-08-06T08:15:49;4.93;;;2.20;;
44774;SDS011;31340;51.402;0.016;2023-08-06T08:18:17;4.75;;;2.20;;
44774;SDS011;31340;51.402;0.016;2023-08-06T08:20:45;3.55;;;2.38;;
44774;SDS011;31340;51.402;0.016;2023-08-06T08:23:12;7.65;;;2.40;;
44774;SDS011;31340;51.402;0.016;2023-08-06T08:25:40;4.05;;;2.30;;
44774;SDS011;31340;51.402;0.016;2023-08-06T08:28:07;4.25;;;2.38;;
44774;SDS011;31340;51.402;0.016;2023-08-06T08:30:35;6.20;;;2.33;;
44774;SDS011;31340;51.402;0.016;2023-08-06T08:33:03;5.45;;;2.55;;
44774;SDS011;31340;51.402;0.016;2023-08-06T08:35:30;5.28;;;2.17;;
44774;SDS011;31340;51.402;0.016;2023-08-06T08:37:58;5.65;;;2.42;;
44774;SDS011;31340;51.402;0.016;2023-08-06T08:40:27;4.40;;;2.28;;
44774;SDS011;31340;51.402;0.016;2023-08-06T08:43:00;6.25;;;2.20;;
44774;SDS011;31340;51.402;0.016;2023-08-06T08:45:28;4.35;;;2.17;;
44774;SDS011;31340;51.402;0.016;2023-08-06T08:47:56;3.53;;;1.98;;
44774;SDS011;31340;51.402;0.016;2023-08-06T08:50:24;5.40;;;2.10;;
44774;SDS011;31340;51.402;0.016;2023-08-06T08:52:52;3.42;;;1.83;;
44774;SDS011;31340;51.402;0.016;2023-08-06T08:55:19;5.25;;;1.85;;
44774;SDS011;31340;51.402;0.016;2023-08-06T08:57:48;6.18;;;2.22;;
44774;SDS011;31340;51.402;0.016;2023-08-06T09:00:16;4.40;;;1.88;;
44774;SDS011;31340;51.402;0.016;2023-08-06T09:02:44;4.25;;;1.83;;
44774;SDS011;31340;51.402;0.016;2023-08-06T09:05:13;4.95;;;2.30;;
44774;SDS011;31340;51.402;0.016;2023-08-06T09:07:42;4.60;;;1.92;;
44774;SDS011;31340;51.402;0.016;2023-08-06T09:10:13;4.65;;;1.83;;
44774;SDS011;31340;51.402;0.016;2023-08-06T09:12:46;3.70;;;1.80;;
44774;SDS011;31340;51.402;0.016;2023-08-06T09:15:15;7.35;;;1.95;;
44774;SDS011;31340;51.402;0.016;2023-08-06T09:17:44;8.88;;;2.60;;
44774;SDS011;31340;51.402;0.016;2023-08-06T09:20:12;2.88;;;1.88;;
44774;SDS011;31340;51.402;0.016;2023-08-06T09:22:41;2.53;;;1.77;;
44774;SDS011;31340;51.402;0.016;2023-08-06T09:25:09;4.03;;;1.67;;
44774;SDS011;31340;51.402;0.016;2023-08-06T09:27:37;6.18;;;1.92;;
44774;SDS011;31340;51.402;0.016;2023-08-06T09:30:05;7.45;;;1.80;;
44774;SDS011;31340;51.402;0.016;2023-08-06T09:32:47;6.13;;;1.67;;
44774;SDS011;31340;51.402;0.016;2023-08-06T09:35:16;6.13;;;2.00;;
44774;SDS011;31340;51.402;0.016;2023-08-06T09:37:44;4.15;;;1.80;;
44774;SDS011;31340;51.402;0.016;2023-08-06T09:40:25;2.88;;;2.15;;
44774;SDS011;31340;51.402;0.016;2023-08-06T09:42:54;4.78;;;1.90;;
44774;SDS011;31340;51.402;0.016;2023-08-06T09:45:24;3.00;;;1.67;;
44774;SDS011;31340;51.402;0.016;2023-08-06T09:47:57;3.38;;;1.90;;
44774;SDS011;31340;51.402;0.016;2023-08-06T09:50:31;3.55;;;2.00;;
44774;SDS011;31340;51.402;0.016;2023-08-06T09:53:00;2.47;;;1.80;;
44774;SDS011;31340;51.402;0.016;2023-08-06T09:55:29;3.08;;;1.90;;
44774;SDS011;31340;51.402;0.016;2023-08-06T09:57:57;7.15;;;2.50;;
44774;SDS011;31340;51.402;0.016;2023-08-06T10:00:26;3.00;;;1.98;;
44774;SDS011;31340;51.402;0.016;2023-08-06T10:02:55;3.20;;;2.10;;
44774;SDS011;31340;51.402;0.016;2023-08-06T10:05:26;4.40;;;1.85;;
44774;SDS011;31340;51.402;0.016;2023-08-06T10:07:54;3.25;;;1.77;;
44774;SDS011;31340;51.402;0.016;2023-08-06T10:10:24;1.67;;;1.45;;
44774;SDS011;31340;51.402;0.016;2023-08-06T10:12:54;2.60;;;1.52;;
44774;SDS011;31340;51.402;0.016;2023-08-06T10:15:25;3.03;;;1.58;;
44774;SDS011;31340;51.402;0.016;2023-08-06T10:17:54;2.70;;;1.70;;
44774;SDS011;31340;51.402;0.016;2023-08-06T10:20:24;4.30;;;2.15;;
44774;SDS011;31340;51.402;0.016;2023-08-06T10:23:02;4.50;;;1.90;;
44774;SDS011;31340;51.402;0.016;2023-08-06T10:25:31;2.45;;;1.60;;
44774;SDS011;31340;51.402;0.016;2023-08-06T10:28:06;2.30;;;1.58;;
44774;SDS011;31340;51.402;0.016;2023-08-06T10:33:14;3.97;;;1.70;;
44774;SDS011;31340;51.402;0.016;2023-08-06T10:35:47;3.67;;;1.65;;
44774;SDS011;31340;51.402;0.016;2023-08-06T10:38:22;4.18;;;1.83;;
44774;SDS011;31340;51.402;0.016;2023-08-06T10:43:27;2.28;;;1.65;;
44774;SDS011;31340;51.402;0.016;2023-08-06T10:46:09;3.35;;;1.38;;
44774;SDS011;31340;51.402;0.016;2023-08-06T10:48:38;4.53;;;1.50;;
44774;SDS011;31340;51.402;0.016;2023-08-06T10:51:07;3.88;;;1.60;;
44774;SDS011;31340;51.402;0.016;2023-08-06T10:53:37;3.63;;;1.80;;
44774;SDS011;31340;51.402;0.016;2023-08-06T10:56:11;3.63;;;1.83;;
44774;SDS011;31340;51.402;0.016;2023-08-06T10:58:44;5.25;;;2.10;;
44774;SDS011;31340;51.402;0.016;2023-08-06T11:01:13;4.55;;;2.22;;
44774;SDS011;31340;51.402;0.016;2023-08-06T11:03:42;4.15;;;2.08;;
44774;SDS011;31340;51.402;0.016;2023-08-06T11:06:22;7.30;;;3.03;;
44774;SDS011;31340;51.402;0.016;2023-08-06T11:08:51;5.75;;;2.25;;
44774;SDS011;31340;51.402;0.016;2023-08-06T11:11:20;5.18;;;2.00;;
44774;SDS011;31340;51.402;0.016;2023-08-06T11:13:50;6.63;;;2.40;;
44774;SDS011;31340;51.402;0.016;2023-08-06T11:16:19;4.97;;;2.03;;
44774;SDS011;31340;51.402;0.016;2023-08-06T11:18:48;5.30;;;2.90;;
44774;SDS011;31340;51.402;0.016;2023-08-06T11:21:22;6.60;;;3.15;;
44774;SDS011;31340;51.402;0.016;2023-08-06T11:23:51;5.93;;;3.50;;
44774;SDS011;31340;51.402;0.016;2023-08-06T11:26:20;3.95;;;2.22;;
44774;SDS011;31340;51.402;0.016;2023-08-06T11:28:48;6.82;;;2.90;;
44774;SDS011;31340;51.402;0.016;2023-08-06T11:31:20;8.00;;;4.38;;
44774;SDS011;31340;51.402;0.016;2023-08-06T11:33:51;10.27;;;4.60;;
44774;SDS011;31340;51.402;0.016;2023-08-06T11:36:28;7.55;;;4.72;;
44774;SDS011;31340;51.402;0.016;2023-08-06T11:39:03;7.72;;;3.63;;
44774;SDS011;31340;51.402;0.016;2023-08-06T11:41:33;6.60;;;2.80;;
44774;SDS011;31340;51.402;0.016;2023-08-06T11:44:03;4.88;;;2.58;;
44774;SDS011;31340;51.402;0.016;2023-08-06T11:46:49;4.45;;;2.40;;
44774;SDS011;31340;51.402;0.016;2023-08-06T11:49:20;5.63;;;2.80;;
44774;SDS011;31340;51.402;0.016;2023-08-06T11:51:48;8.48;;;2.78;;
44774;SDS011;31340;51.402;0.016;2023-08-06T11:54:16;3.97;;;2.25;;
44774;SDS011;31340;51.402;0.016;2023-08-06T11:56:57;3.95;;;2.60;;
44774;SDS011;31340;51.402;0.016;2023-08-06T11:59:25;4.15;;;2.28;;
44774;SDS011;31340;51.402;0.016;2023-08-06T12:01:53;6.97;;;2.70;;
44774;SDS011;31340;51.402;0.016;2023-08-06T12:04:21;4.95;;;2.33;;
44774;SDS011;31340;51.402;0.016;2023-08-06T12:06:48;3.40;;;2.17;;
44774;SDS011;31340;51.402;0.016;2023-08-06T12:09:16;3.22;;;2.10;;
44774;SDS011;31340;51.402;0.016;2023-08-06T12:11:44;3.60;;;2.10;;
44774;SDS011;31340;51.402;0.016;2023-08-06T12:16:57;4.45;;;1.85;;
44774;SDS011;31340;51.402;0.016;2023-08-06T12:19:24;4.13;;;2.00;;
44774;SDS011;31340;51.402;0.016;2023-08-06T12:21:53;2.65;;;1.77;;
44774;SDS011;31340;51.402;0.016;2023-08-06T12:24:21;4.57;;;2.08;;
44774;SDS011;31340;51.402;0.016;2023-08-06T12:26:48;4.22;;;2.30;;
44774;SDS011;31340;51.402;0.016;2023-08-06T12:29:16;5.72;;;2.28;;
44774;SDS011;31340;51.402;0.016;2023-08-06T12:31:43;2.75;;;1.83;;
44774;SDS011;31340;51.402;0.016;2023-08-06T12:34:11;3.53;;;1.95;;
44774;SDS011;31340;51.402;0.016;2023-08-06T12:36:39;3.35;;;2.00;;
44774;SDS011;31340;51.402;0.016;2023-08-06T12:39:07;3.47;;;2.30;;
44774;SDS011;31340;51.402;0.016;2023-08-06T12:41:35;3.13;;;1.63;;
44774;SDS011;31340;51.402;0.016;2023-08-06T12:44:02;3.83;;;1.50;;
44774;SDS011;31340;51.402;0.016;2023-08-06T12:46:30;3.03;;;1.73;;
44774;SDS011;31340;51.402;0.016;2023-08-06T12:49:00;2.55;;;1.50;;
44774;SDS011;31340;51.402;0.016;2023-08-06T12:51:27;3.10;;;1.70;;
44774;SDS011;31340;51.402;0.016;2023-08-06T12:53:54;3.22;;;1.80;;
44774;SDS011;31340;51.402;0.016;2023-08-06T12:56:22;4.40;;;1.80;;
44774;SDS011;31340;51.402;0.016;2023-08-06T12:58:50;2.20;;;1.67;;
44774;SDS011;31340;51.402;0.016;2023-08-06T13:01:17;3.38;;;1.95;;
44774;SDS011;31340;51.402;0.016;2023-08-06T13:03:45;2.42;;;1.75;;
44774;SDS011;31340;51.402;0.016;2023-08-06T13:06:13;2.85;;;1.60;;
44774;SDS011;31340;51.402;0.016;2023-08-06T13:08:40;3.20;;;2.05;;
44774;SDS011;31340;51.402;0.016;2023-08-06T13:11:08;2.67;;;1.60;;
44774;SDS011;31340;51.402;0.016;2023-08-06T13:13:36;4.43;;;2.10;;
44774;SDS011;31340;51.402;0.016;2023-08-06T13:16:04;2.53;;;1.75;;
44774;SDS011;31340;51.402;0.016;2023-08-06T13:18:32;3.97;;;2.03;;
44774;SDS011;31340;51.402;0.016;2023-08-06T13:20:59;4.32;;;1.80;;
44774;SDS011;31340;51.402;0.016;2023-08-06T13:23:27;2.80;;;1.65;;
44774;SDS011;31340;51.402;0.016;2023-08-06T13:25:54;2.80;;;1.75;;
44774;SDS011;31340;51.402;0.016;2023-08-06T13:28:22;4.63;;;2.03;;
44774;SDS011;31340;51.402;0.016;2023-08-06T13:30:50;2.72;;;2.05;;
44774;SDS011;31340;51.402;0.016;2023-08-06T13:33:17;4.32;;;2.03;;
44774;SDS011;31340;51.402;0.016;2023-08-06T13:35:45;2.47;;;1.80;;
44774;SDS011;31340;51.402;0.016;2023-08-06T13:38:13;4.65;;;2.17;;
44774;SDS011;31340;51.402;0.016;2023-08-06T13:40:40;5.35;;;1.85;;
44774;SDS011;31340;51.402;0.016;2023-08-06T13:43:08;5.15;;;2.08;;
44774;SDS011;31340;51.402;0.016;2023-08-06T13:45:35;7.07;;;2.42;;
44774;SDS011;31340;51.402;0.016;2023-08-06T13:48:04;3.95;;;2.30;;
44774;SDS011;31340;51.402;0.016;2023-08-06T13:50:33;4.28;;;2.15;;
44774;SDS011;31340;51.402;0.016;2023-08-06T13:53:01;5.45;;;2.70;;
44774;SDS011;31340;51.402;0.016;2023-08-06T13:55:29;4.00;;;1.73;;
44774;SDS011;31340;51.402;0.016;2023-08-06T13:57:56;2.33;;;1.90;;
44774;SDS011;31340;51.402;0.016;2023-08-06T14:00:24;4.32;;;1.90;;
44774;SDS011;31340;51.402;0.016;2023-08-06T14:02:52;2.60;;;1.95;;
44774;SDS011;31340;51.402;0.016;2023-08-06T14:05:19;5.20;;;2.05;;
44774;SDS011;31340;51.402;0.016;2023-08-06T14:07:47;3.83;;;2.35;;
44774;SDS011;31340;51.402;0.016;2023-08-06T14:10:14;1.75;;;1.60;;
44774;SDS011;31340;51.402;0.016;2023-08-06T14:12:42;3.25;;;1.85;;
44774;SDS011;31340;51.402;0.016;2023-08-06T14:15:15;3.03;;;1.85;;
44774;SDS011;31340;51.402;0.016;2023-08-06T14:17:43;3.22;;;1.48;;
44774;SDS011;31340;51.402;0.016;2023-08-06T14:20:11;3.25;;;1.70;;
44774;SDS011;31340;51.402;0.016;2023-08-06T14:22:39;3.08;;;1.70;;
44774;SDS011;31340;51.402;0.016;2023-08-06T14:25:06;2.65;;;2.20;;
44774;SDS011;31340;51.402;0.016;2023-08-06T14:27:34;4.47;;;1.50;;
44774;SDS011;31340;51.402;0.016;2023-08-06T14:30:02;1.90;;;1.38;;
44774;SDS011;31340;51.402;0.016;2023-08-06T14:32:30;2.20;;;1.40;;
44774;SDS011;31340;51.402;0.016;2023-08-06T14:34:58;1.40;;;1.00;;
44774;SDS011;31340;51.402;0.016;2023-08-06T14:37:26;1.65;;;1.10;;
44774;SDS011;31340;51.402;0.016;2023-08-06T14:39:53;2.25;;;1.45;;
44774;SDS011;31340;51.402;0.016;2023-08-06T14:42:21;2.88;;;1.63;;
44774;SDS011;31340;51.402;0.016;2023-08-06T14:44:49;1.77;;;1.40;;
44774;SDS011;31340;51.402;0.016;2023-08-06T14:47:17;1.88;;;1.60;;
44774;SDS011;31340;51.402;0.016;2023-08-06T14:49:44;1.30;;;1.20;;
44774;SDS011;31340;51.402;0.016;2023-08-06T14:52:12;5.97;;;1.60;;
44774;SDS011;31340;51.402;0.016;2023-08-06T14:54:40;3.22;;;1.30;;
44774;SDS011;31340;51.402;0.016;2023-08-06T14:57:08;1.65;;;1.33;;
44774;SDS011;31340;51.402;0.016;2023-08-06T14:59:36;2.40;;;1.20;;
44774;SDS011;31340;51.402;0.016;2023-08-06T15:02:05;2.97;;;2.00;;
44774;SDS011;31340;51.402;0.016;2023-08-06T15:04:33;2.55;;;1.23;;
44774;SDS011;31340;51.402;0.016;2023-08-06T15:07:00;2.10;;;1.40;;
44774;SDS011;31340;51.402;0.016;2023-08-06T15:09:28;1.50;;;1.25;;
44774;SDS011;31340;51.402;0.016;2023-08-06T15:11:57;2.10;;;1.50;;
44774;SDS011;31340;51.402;0.016;2023-08-06T15:14:25;1.67;;;1.00;;